createdAt,value
2023-02-28T00:01:24.868Z,249.73
2023-02-28T00:03:26.385Z,149.95
2023-02-28T00:05:29.262Z,69.00
2023-02-28T00:07:31.640Z,60.97
2023-02-28T00:09:33.169Z,86.32
2023-02-28T00:11:34.723Z,109.18
2023-02-28T00:13:41.020Z,66.13
2023-02-28T00:15:42.524Z,67.35
2023-02-28T00:17:44.952Z,52.83
2023-02-28T00:19:46.463Z,51.35
2023-02-28T00:21:48.029Z,41.33
2023-02-28T00:23:50.047Z,39.10
2023-02-28T00:25:52.419Z,41.78
2023-02-28T00:27:54.190Z,42.40
2023-02-28T00:29:55.786Z,36.83
2023-02-28T00:31:57.395Z,37.15
2023-02-28T00:33:59.244Z,36.08
2023-02-28T00:36:10.425Z,33.15
2023-02-28T00:38:11.947Z,40.05
2023-02-28T00:40:13.651Z,68.80
2023-02-28T00:42:15.290Z,53.10
2023-02-28T00:44:16.784Z,45.63
2023-02-28T00:46:18.378Z,46.08
2023-02-28T00:48:19.976Z,49.33
2023-02-28T00:50:21.940Z,59.53
2023-02-28T00:52:23.502Z,57.58
2023-02-28T00:54:25.450Z,58.03
2023-02-28T00:56:26.938Z,55.67
2023-02-28T00:58:28.810Z,48.15
2023-02-28T01:00:30.351Z,46.33
2023-02-28T01:02:31.905Z,41.80
2023-02-28T01:04:33.526Z,39.40
2023-02-28T01:06:35.260Z,37.55
2023-02-28T01:08:36.838Z,39.97
2023-02-28T01:10:39.330Z,41.65
2023-02-28T01:12:40.852Z,36.10
2023-02-28T01:14:42.442Z,35.30
2023-02-28T01:16:44.426Z,30.90
2023-02-28T01:18:46.001Z,37.13
2023-02-28T01:20:47.549Z,28.63
2023-02-28T01:22:49.051Z,32.33
2023-02-28T01:24:50.621Z,23.77
2023-02-28T01:26:52.266Z,24.65
2023-02-28T01:28:54.200Z,26.52
2023-02-28T01:30:55.709Z,23.33
2023-02-28T01:32:57.464Z,28.55
2023-02-28T01:34:59.025Z,26.02
2023-02-28T01:37:00.618Z,39.38
2023-02-28T01:39:02.121Z,36.92
2023-02-28T01:41:04.179Z,34.03
2023-02-28T01:43:25.236Z,26.52
2023-02-28T01:45:28.534Z,22.95
2023-02-28T01:47:34.396Z,21.27
2023-02-28T01:49:35.908Z,25.95
2023-02-28T01:51:47.406Z,26.60
2023-02-28T01:53:53.951Z,29.88
2023-02-28T01:55:55.810Z,26.48
2023-02-28T01:58:01.043Z,30.52
2023-02-28T02:00:09.059Z,25.30
2023-02-28T02:02:10.749Z,23.30
2023-02-28T02:04:12.544Z,25.98
2023-02-28T02:06:14.153Z,22.25
2023-02-28T02:08:27.186Z,18.58
2023-02-28T02:10:44.142Z,19.48
2023-02-28T02:13:09.187Z,21.83
2023-02-28T02:15:17.221Z,20.33
2023-02-28T02:17:48.273Z,20.88
2023-02-28T02:20:05.022Z,18.42
2023-02-28T02:22:53.744Z,29.08
2023-02-28T02:25:14.815Z,20.80
2023-02-28T02:27:23.342Z,22.42
2023-02-28T02:29:29.970Z,17.83
2023-02-28T02:31:53.126Z,23.00
2023-02-28T02:34:19.870Z,19.17
2023-02-28T02:36:30.718Z,18.95
2023-02-28T02:38:51.010Z,22.58
2023-02-28T02:41:20.450Z,20.58
2023-02-28T02:45:37.104Z,15.48
2023-02-28T02:47:40.599Z,18.10
2023-02-28T02:49:47.905Z,24.92
2023-02-28T02:51:52.267Z,25.70
2023-02-28T02:54:01.933Z,24.58
2023-02-28T02:58:11.239Z,21.60
2023-02-28T03:00:15.452Z,18.95
2023-02-28T03:02:18.863Z,19.17
2023-02-28T03:04:23.490Z,28.25
2023-02-28T03:06:26.174Z,22.63
2023-02-28T03:08:30.914Z,18.45
2023-02-28T03:10:34.497Z,22.13
2023-02-28T03:13:04.871Z,18.98
2023-02-28T03:15:24.728Z,17.08
2023-02-28T03:17:44.156Z,17.85
2023-02-28T03:20:14.102Z,36.35
2023-02-28T03:22:35.830Z,28.13
2023-02-28T03:25:03.380Z,22.38
2023-02-28T03:27:10.359Z,22.55
2023-02-28T03:29:28.860Z,20.25
2023-02-28T03:31:39.724Z,20.40
2023-02-28T03:33:47.355Z,22.17
2023-02-28T03:35:53.912Z,27.17
2023-02-28T03:38:04.479Z,27.50
2023-02-28T03:40:14.070Z,22.95
2023-02-28T03:44:44.351Z,27.40
2023-02-28T03:46:55.399Z,23.33
2023-02-28T03:49:03.189Z,20.33
2023-02-28T03:51:09.978Z,21.60
2023-02-28T03:53:33.786Z,21.60
2023-02-28T03:56:01.630Z,27.30
2023-02-28T03:58:12.551Z,23.70
2023-02-28T04:00:22.351Z,30.52
2023-02-28T04:02:23.974Z,37.05
2023-02-28T04:04:26.118Z,24.52
2023-02-28T04:06:28.227Z,30.00
2023-02-28T04:08:29.874Z,71.35
2023-02-28T04:10:31.443Z,18.38
2023-02-28T04:12:32.981Z,26.52
2023-02-28T04:14:34.515Z,19.15
2023-02-28T04:16:38.945Z,18.15
2023-02-28T04:18:41.073Z,22.38
2023-02-28T04:20:42.642Z,93.78
2023-02-28T04:22:44.159Z,57.95
2023-02-28T04:24:45.968Z,33.92
2023-02-28T04:26:50.070Z,26.35
2023-02-28T04:28:51.559Z,37.92
2023-02-28T04:31:03.764Z,37.13
2023-02-28T04:33:05.353Z,54.35
2023-02-28T04:35:07.501Z,56.95
2023-02-28T04:37:14.061Z,46.38
2023-02-28T04:39:16.857Z,47.03
2023-02-28T04:41:19.779Z,31.60
2023-02-28T04:43:21.269Z,23.95
2023-02-28T04:45:22.846Z,25.48
2023-02-28T04:47:24.362Z,22.73
2023-02-28T04:49:26.016Z,22.08
2023-02-28T04:51:27.907Z,32.55
2023-02-28T04:53:30.378Z,29.48
2023-02-28T04:55:31.888Z,36.95
2023-02-28T04:57:33.405Z,35.30
2023-02-28T04:59:35.035Z,31.10
2023-02-28T05:01:37.425Z,29.00
2023-02-28T05:03:41.613Z,35.78
2023-02-28T05:05:43.271Z,39.95
2023-02-28T05:07:46.031Z,37.03
2023-02-28T05:09:47.507Z,30.75
2023-02-28T05:11:49.347Z,39.92
2023-02-28T05:13:51.590Z,50.25
2023-02-28T05:15:53.225Z,58.35
2023-02-28T05:17:55.052Z,86.05
2023-02-28T05:20:03.820Z,71.53
2023-02-28T05:22:17.838Z,69.18
2023-02-28T05:24:26.161Z,71.35
2023-02-28T05:26:28.884Z,100.53
2023-02-28T05:28:30.585Z,111.72
2023-02-28T05:30:33.645Z,98.63
2023-02-28T05:32:35.277Z,84.40
2023-02-28T05:34:37.700Z,53.67
2023-02-28T05:36:39.841Z,47.83
2023-02-28T05:38:41.511Z,53.55
2023-02-28T05:40:43.049Z,55.00
2023-02-28T05:42:44.567Z,59.00
2023-02-28T05:44:46.621Z,57.40
2023-02-28T05:46:48.145Z,62.13
2023-02-28T05:48:50.220Z,51.90
2023-02-28T05:50:51.897Z,52.85
2023-02-28T05:52:53.429Z,52.08
2023-02-28T05:54:54.979Z,66.25
2023-02-28T05:56:56.528Z,51.50
2023-02-28T05:58:58.158Z,45.10
2023-02-28T06:01:00.847Z,45.72
2023-02-28T06:03:03.222Z,52.72
2023-02-28T06:05:05.044Z,54.92
2023-02-28T06:07:06.554Z,54.78
2023-02-28T06:09:08.036Z,102.25
2023-02-28T06:11:09.529Z,87.95
2023-02-28T06:13:11.054Z,68.22
2023-02-28T06:15:16.725Z,65.20
2023-02-28T06:17:18.300Z,120.03
2023-02-28T06:19:19.901Z,64.85
2023-02-28T06:21:21.465Z,31.58
2023-02-28T06:23:23.236Z,40.42
2023-02-28T06:25:25.417Z,61.88
2023-02-28T06:27:27.036Z,39.90
2023-02-28T06:29:28.557Z,29.15
2023-02-28T06:31:30.729Z,44.22
2023-02-28T06:33:32.515Z,28.40
2023-02-28T06:35:34.110Z,39.08
2023-02-28T06:37:35.613Z,46.85
2023-02-28T06:39:37.415Z,36.63
2023-02-28T06:41:53.544Z,45.95
2023-02-28T06:43:56.556Z,57.85
2023-02-28T06:46:00.530Z,44.15
2023-02-28T06:48:02.293Z,44.95
2023-02-28T06:50:04.712Z,51.70
2023-02-28T06:52:06.545Z,57.15
2023-02-28T06:54:09.998Z,52.17
2023-02-28T06:56:13.931Z,53.85
2023-02-28T06:58:21.518Z,68.60
2023-02-28T07:00:23.134Z,74.60
2023-02-28T07:02:24.716Z,73.93
2023-02-28T07:04:26.653Z,68.47
2023-02-28T07:06:28.791Z,77.70
2023-02-28T07:08:30.337Z,79.05
2023-02-28T07:10:31.879Z,89.03
2023-02-28T07:12:33.747Z,103.22
2023-02-28T07:14:38.011Z,68.88
2023-02-28T07:16:39.510Z,61.42
2023-02-28T07:18:41.145Z,49.45
2023-02-28T07:20:42.636Z,54.25
2023-02-28T07:22:44.391Z,51.75
2023-02-28T07:24:46.128Z,52.63
2023-02-28T07:26:47.733Z,53.50
2023-02-28T07:28:50.255Z,55.85
2023-02-28T07:30:52.041Z,62.20
2023-02-28T07:32:55.730Z,53.53
2023-02-28T07:34:57.329Z,70.88
2023-02-28T07:36:58.991Z,69.07
2023-02-28T07:39:00.637Z,62.80
2023-02-28T07:41:05.322Z,46.97
2023-02-28T07:43:06.851Z,38.20
2023-02-28T07:45:12.655Z,52.40
2023-02-28T07:47:14.300Z,33.35
2023-02-28T07:49:15.815Z,55.03
2023-02-28T07:51:17.464Z,34.53
2023-02-28T07:53:18.967Z,23.75
2023-02-28T07:55:20.490Z,25.52
2023-02-28T07:57:22.418Z,25.42
2023-02-28T07:59:24.083Z,60.03
2023-02-28T08:01:25.841Z,30.48
2023-02-28T08:03:27.360Z,31.30
2023-02-28T08:05:28.996Z,26.48
2023-02-28T08:07:30.550Z,35.75
2023-02-28T08:09:32.086Z,30.60
2023-02-28T08:11:33.612Z,58.33
2023-02-28T08:13:35.225Z,21.35
2023-02-28T08:15:37.331Z,24.58
2023-02-28T08:17:38.968Z,83.10
2023-02-28T08:19:40.538Z,19.65
2023-02-28T08:21:42.079Z,31.08
2023-02-28T08:23:43.894Z,22.38
2023-02-28T08:25:45.522Z,28.67
2023-02-28T08:27:47.049Z,47.88
2023-02-28T08:29:48.605Z,22.27
2023-02-28T08:31:50.393Z,18.92
2023-02-28T08:33:54.132Z,17.40
2023-02-28T08:35:57.111Z,18.25
2023-02-28T08:37:59.309Z,17.27
2023-02-28T08:40:00.933Z,14.50
2023-02-28T08:42:07.999Z,39.88
2023-02-28T08:44:09.787Z,52.35
2023-02-28T08:46:15.164Z,35.55
2023-02-28T08:48:19.542Z,61.60
2023-02-28T08:50:21.205Z,26.80
2023-02-28T08:52:22.770Z,20.45
2023-02-28T08:54:25.166Z,18.45
2023-02-28T08:56:28.551Z,13.32
2023-02-28T08:58:30.156Z,37.20
2023-02-28T09:00:31.755Z,29.45
2023-02-28T09:02:33.369Z,21.52
2023-02-28T09:04:35.346Z,17.02
2023-02-28T09:06:36.873Z,27.23
2023-02-28T09:08:38.649Z,110.35
2023-02-28T09:10:40.165Z,13.18
2023-02-28T09:12:41.751Z,18.60
2023-02-28T09:14:44.491Z,18.77
2023-02-28T09:16:46.077Z,20.45
2023-02-28T09:18:48.162Z,24.65
2023-02-28T09:20:49.673Z,19.60
2023-02-28T09:22:51.190Z,18.92
2023-02-28T09:24:52.943Z,22.98
2023-02-28T09:27:03.867Z,52.83
2023-02-28T09:29:06.255Z,19.50
2023-02-28T09:31:07.822Z,74.15
2023-02-28T09:33:09.387Z,36.75
2023-02-28T09:35:14.407Z,26.80
2023-02-28T09:37:15.989Z,48.70
2023-02-28T09:39:17.522Z,25.67
2023-02-28T09:41:23.230Z,16.88
2023-02-28T09:43:32.803Z,19.98
2023-02-28T09:45:38.901Z,14.88
2023-02-28T09:47:45.255Z,13.23
2023-02-28T09:49:48.832Z,15.60
2023-02-28T09:52:11.338Z,12.10
2023-02-28T09:54:21.806Z,13.55
2023-02-28T09:56:32.913Z,14.43
2023-02-28T09:58:53.929Z,13.13
2023-02-28T10:01:19.978Z,13.65
2023-02-28T10:03:36.444Z,16.33
2023-02-28T10:06:06.603Z,14.85
2023-02-28T10:08:42.471Z,12.38
2023-02-28T10:10:47.612Z,29.80
2023-02-28T10:12:52.159Z,29.05
2023-02-28T10:14:56.166Z,26.08
2023-02-28T10:17:02.050Z,11.63
2023-02-28T10:19:09.616Z,14.25
2023-02-28T10:21:21.475Z,13.38
2023-02-28T10:23:28.105Z,12.18
2023-02-28T10:25:30.778Z,15.30
2023-02-28T10:27:33.628Z,18.73
2023-02-28T10:29:35.267Z,38.13
2023-02-28T10:31:36.834Z,17.05
2023-02-28T10:33:38.789Z,10.65
2023-02-28T10:35:40.301Z,11.82
2023-02-28T10:37:45.099Z,12.68
2023-02-28T10:39:47.610Z,13.88
2023-02-28T10:41:49.306Z,10.57
2023-02-28T10:43:50.896Z,12.95
2023-02-28T10:46:10.991Z,15.93
2023-02-28T10:48:15.567Z,18.40
2023-02-28T10:50:48.310Z,22.27
2023-02-28T10:52:49.916Z,10.18
2023-02-28T10:55:15.666Z,14.10
2023-02-28T10:57:25.482Z,17.95
2023-02-28T10:59:32.137Z,12.55
2023-02-28T11:01:41.404Z,11.98
2023-02-28T11:03:42.998Z,15.32
2023-02-28T11:05:44.990Z,12.60
2023-02-28T11:07:54.481Z,14.10
2023-02-28T11:09:58.550Z,11.80
2023-02-28T11:12:01.076Z,14.48
2023-02-28T11:14:07.307Z,19.25
2023-02-28T11:16:11.537Z,13.25
2023-02-28T11:18:13.069Z,10.75
2023-02-28T11:20:25.930Z,12.80
2023-02-28T11:22:30.183Z,12.68
2023-02-28T11:24:38.707Z,16.70
2023-02-28T11:26:46.385Z,15.32
2023-02-28T11:28:48.278Z,18.33
2023-02-28T11:31:16.173Z,12.23
2023-02-28T11:33:46.070Z,24.77
2023-02-28T11:37:51.323Z,15.52
2023-02-28T11:39:52.892Z,12.80
2023-02-28T11:42:03.193Z,15.30
2023-02-28T11:44:11.095Z,13.60
2023-02-28T11:46:22.236Z,12.43
2023-02-28T11:48:29.230Z,30.95
2023-02-28T11:50:46.863Z,13.93
2023-02-28T11:52:59.518Z,28.13
2023-02-28T11:55:21.827Z,23.35
2023-02-28T11:57:23.266Z,15.05
2023-02-28T11:59:44.615Z,25.23
2023-02-28T12:02:04.999Z,17.08
2023-02-28T12:04:26.860Z,23.73
2023-02-28T12:06:55.285Z,29.08
2023-02-28T12:09:17.086Z,17.55
2023-02-28T12:11:39.363Z,21.02
2023-02-28T12:13:54.000Z,22.15
2023-02-28T12:16:22.082Z,26.30
2023-02-28T12:18:46.878Z,13.57
2023-02-28T12:21:03.218Z,12.88
2023-02-28T12:23:20.315Z,14.80
2023-02-28T12:25:42.088Z,14.82
2023-02-28T12:27:47.281Z,13.80
2023-02-28T12:29:59.730Z,13.95
2023-02-28T12:32:26.249Z,12.80
2023-02-28T12:34:32.734Z,10.23
2023-02-28T12:36:36.036Z,11.88
2023-02-28T12:38:45.012Z,13.32
2023-02-28T12:41:12.946Z,16.33
2023-02-28T12:43:17.620Z,18.42
2023-02-28T12:45:41.493Z,13.85
2023-02-28T12:47:45.593Z,31.05
2023-02-28T12:49:52.431Z,16.05
2023-02-28T12:51:54.332Z,14.00
2023-02-28T12:54:06.048Z,13.90
2023-02-28T12:56:16.404Z,16.48
2023-02-28T12:58:26.661Z,13.05
2023-02-28T13:00:36.054Z,18.65
2023-02-28T13:03:12.397Z,12.75
2023-02-28T13:05:51.697Z,17.23
2023-02-28T13:08:05.513Z,16.80
2023-02-28T13:10:11.165Z,23.10
2023-02-28T13:12:17.684Z,14.90
2023-02-28T13:14:34.093Z,16.33
2023-02-28T13:16:58.228Z,18.17
2023-02-28T13:19:11.723Z,19.10
2023-02-28T13:21:29.530Z,14.57
2023-02-28T13:23:52.358Z,25.67
2023-02-28T13:25:54.931Z,16.58
2023-02-28T13:28:01.931Z,17.45
2023-02-28T13:30:42.500Z,17.10
2023-02-28T13:32:44.420Z,19.92
2023-02-28T13:35:05.842Z,147.23
2023-02-28T13:37:22.407Z,40.22
2023-02-28T13:39:51.072Z,17.95
2023-02-28T13:41:52.636Z,14.98
2023-02-28T13:44:02.175Z,16.63
2023-02-28T13:46:11.694Z,15.05
2023-02-28T13:48:20.202Z,21.85
2023-02-28T13:50:25.053Z,18.30
2023-02-28T13:52:26.969Z,34.55
2023-02-28T13:54:40.839Z,22.08
2023-02-28T13:56:50.585Z,15.50
2023-02-28T13:59:13.702Z,21.85
2023-02-28T14:01:18.242Z,17.42
2023-02-28T14:03:19.761Z,15.38
2023-02-28T14:05:26.734Z,16.88
2023-02-28T14:07:44.586Z,19.42
2023-02-28T14:10:00.179Z,15.32
2023-02-28T14:12:39.415Z,15.60
2023-02-28T14:14:40.912Z,17.98
2023-02-28T14:16:48.067Z,30.08
2023-02-28T14:19:01.472Z,18.35
2023-02-28T14:21:30.047Z,16.80
2023-02-28T14:23:50.223Z,18.98
2023-02-28T14:26:07.793Z,32.67
2023-02-28T14:28:49.654Z,22.33
2023-02-28T14:30:57.924Z,17.77
2023-02-28T14:33:25.019Z,19.15
2023-02-28T14:35:26.498Z,15.50
2023-02-28T14:37:31.262Z,16.45
2023-02-28T14:39:33.831Z,17.58
2023-02-28T14:41:40.967Z,16.52
2023-02-28T14:43:51.249Z,20.98
2023-02-28T14:46:00.526Z,17.85
2023-02-28T14:48:05.768Z,18.58
2023-02-28T14:50:10.009Z,23.27
2023-02-28T14:52:16.954Z,22.80
2023-02-28T14:54:25.066Z,17.90
2023-02-28T14:56:45.284Z,18.80
2023-02-28T14:58:53.761Z,18.40
2023-02-28T15:00:58.344Z,18.70
2023-02-28T15:03:01.882Z,15.18
2023-02-28T15:05:27.355Z,18.50
2023-02-28T15:07:31.507Z,20.13
2023-02-28T15:09:33.041Z,27.27
2023-02-28T15:11:34.864Z,19.55
2023-02-28T15:13:51.511Z,26.75
2023-02-28T15:16:02.302Z,17.38
2023-02-28T15:18:08.677Z,27.10
2023-02-28T15:20:15.131Z,23.27
2023-02-28T15:22:19.367Z,33.72
2023-02-28T15:24:31.360Z,24.38
2023-02-28T15:26:36.782Z,44.10
2023-02-28T15:28:38.322Z,44.53
2023-02-28T15:30:40.117Z,60.67
2023-02-28T15:32:48.265Z,48.75
2023-02-28T15:34:50.683Z,48.35
2023-02-28T15:36:52.212Z,49.40
2023-02-28T15:38:55.048Z,60.47
2023-02-28T15:40:59.446Z,64.03
2023-02-28T15:43:06.266Z,55.92
2023-02-28T15:45:32.943Z,56.67
2023-02-28T15:47:34.581Z,59.53
2023-02-28T15:49:55.473Z,61.85
2023-02-28T15:52:00.223Z,62.40
2023-02-28T15:54:30.162Z,65.68
2023-02-28T15:56:40.326Z,70.60
2023-02-28T15:58:43.260Z,89.10
2023-02-28T16:01:00.374Z,120.38
2023-02-28T16:03:29.080Z,148.85
2023-02-28T16:05:32.935Z,435.50
2023-02-28T16:07:44.616Z,303.80
2023-02-28T16:09:57.280Z,425.58
2023-02-28T16:12:04.103Z,233.88
2023-02-28T16:14:06.382Z,284.95
2023-02-28T16:16:08.066Z,313.80
2023-02-28T16:18:12.550Z,180.05
2023-02-28T16:20:25.818Z,275.40
2023-02-28T16:22:27.476Z,174.32
2023-02-28T16:24:29.098Z,123.78
2023-02-28T16:26:30.722Z,96.97
2023-02-28T16:28:35.893Z,135.27
2023-02-28T16:30:38.900Z,144.43
2023-02-28T16:32:40.573Z,121.40
2023-02-28T16:34:43.891Z,112.13
2023-02-28T16:36:47.976Z,110.72
2023-02-28T16:38:50.191Z,100.93
2023-02-28T16:40:54.145Z,119.80
2023-02-28T16:42:59.875Z,103.90
2023-02-28T16:45:01.841Z,94.60
2023-02-28T16:47:05.185Z,96.57
2023-02-28T16:49:12.279Z,95.43
2023-02-28T16:51:15.282Z,86.07
2023-02-28T16:53:16.791Z,116.20
2023-02-28T16:55:18.903Z,146.73
2023-02-28T16:57:24.220Z,168.23
2023-02-28T16:59:28.236Z,182.25
2023-02-28T17:01:30.205Z,157.77
2023-02-28T17:03:33.814Z,172.40
2023-02-28T17:05:39.496Z,162.68
2023-02-28T17:07:41.198Z,189.27
2023-02-28T17:09:45.463Z,181.07
2023-02-28T17:11:47.863Z,239.35
2023-02-28T17:13:50.170Z,257.20
2023-02-28T17:15:51.869Z,271.77
2023-02-28T17:17:54.390Z,233.75
2023-02-28T17:19:55.911Z,200.57
2023-02-28T17:21:57.422Z,163.52
2023-02-28T17:23:59.294Z,457.33
2023-02-28T17:26:00.976Z,176.48
2023-02-28T17:28:02.474Z,210.93
2023-02-28T17:30:14.619Z,197.57
2023-02-28T17:32:18.311Z,246.45
2023-02-28T17:34:20.729Z,348.35
2023-02-28T17:36:27.794Z,292.10
2023-02-28T17:38:29.734Z,226.05
2023-02-28T17:40:31.485Z,254.75
2023-02-28T17:42:33.057Z,234.60
2023-02-28T17:44:34.772Z,254.52
2023-02-28T17:46:37.154Z,267.17
2023-02-28T17:48:39.047Z,329.73
2023-02-28T17:50:40.588Z,380.52
2023-02-28T17:52:42.114Z,445.02
2023-02-28T17:54:44.588Z,445.35
2023-02-28T17:56:46.313Z,366.52
2023-02-28T17:58:48.546Z,401.52
2023-02-28T18:00:54.764Z,455.25
2023-02-28T18:02:56.633Z,451.45
2023-02-28T18:04:59.180Z,516.85
2023-02-28T18:07:01.143Z,513.63
2023-02-28T18:09:02.769Z,517.30
2023-02-28T18:11:04.381Z,511.65
2023-02-28T18:13:06.089Z,539.70
2023-02-28T18:15:08.183Z,564.75
2023-02-28T18:17:13.281Z,577.58
2023-02-28T18:19:15.876Z,475.63
2023-02-28T18:21:17.576Z,288.98
2023-02-28T18:23:21.150Z,262.48
2023-02-28T18:25:23.435Z,218.85
2023-02-28T18:27:25.077Z,266.30
2023-02-28T18:29:28.573Z,260.17
2023-02-28T18:31:32.409Z,245.82
2023-02-28T18:33:34.029Z,219.43
2023-02-28T18:35:35.680Z,194.68
2023-02-28T18:37:38.361Z,228.35
2023-02-28T18:39:40.630Z,217.50
2023-02-28T18:41:42.228Z,220.32
2023-02-28T18:43:44.395Z,279.17
2023-02-28T18:45:45.963Z,264.33
2023-02-28T18:47:47.476Z,235.80
2023-02-28T18:49:49.046Z,205.38
2023-02-28T18:51:50.547Z,192.93
2023-02-28T18:53:52.772Z,189.55
2023-02-28T18:55:54.901Z,163.48
2023-02-28T18:57:56.430Z,176.35
2023-02-28T18:59:57.954Z,257.30
2023-02-28T19:01:59.478Z,284.15
2023-02-28T19:04:03.543Z,480.58
2023-02-28T19:06:05.360Z,197.00
2023-02-28T19:08:06.974Z,190.38
2023-02-28T19:10:09.791Z,183.80
2023-02-28T19:12:11.370Z,161.25
2023-02-28T19:14:12.914Z,108.50
2023-02-28T19:16:16.465Z,100.10
2023-02-28T19:18:18.030Z,118.20
2023-02-28T19:20:19.852Z,107.45
2023-02-28T19:22:21.617Z,120.22
2023-02-28T19:24:23.194Z,102.43
2023-02-28T19:26:26.616Z,105.85
2023-02-28T19:28:30.229Z,99.53
2023-02-28T19:30:31.769Z,94.20
2023-02-28T19:32:33.519Z,110.65
2023-02-28T19:34:37.438Z,152.68
2023-02-28T19:36:38.957Z,151.60
2023-02-28T19:38:41.825Z,163.88
2023-02-28T19:40:43.658Z,121.95
2023-02-28T19:42:45.266Z,128.18
2023-02-28T19:44:46.973Z,172.10
2023-02-28T19:46:48.664Z,191.45
2023-02-28T19:48:53.588Z,199.23
2023-02-28T19:51:01.428Z,237.90
2023-02-28T19:53:03.393Z,256.35
2023-02-28T19:55:05.330Z,196.50
2023-02-28T19:57:07.077Z,179.77
2023-02-28T19:59:16.842Z,156.02
2023-02-28T20:01:23.562Z,149.82
2023-02-28T20:03:25.168Z,127.78
2023-02-28T20:05:26.772Z,125.80
2023-02-28T20:07:28.454Z,120.15
2023-02-28T20:09:32.012Z,128.18
2023-02-28T20:11:33.635Z,156.15
2023-02-28T20:13:35.721Z,461.02
2023-02-28T20:15:37.967Z,280.58
2023-02-28T20:17:42.057Z,247.02
2023-02-28T20:19:43.622Z,300.45
2023-02-28T20:21:45.465Z,217.88
2023-02-28T20:23:48.864Z,220.82
2023-02-28T20:25:51.738Z,173.52
2023-02-28T20:27:53.344Z,114.57
2023-02-28T20:29:54.916Z,103.68
2023-02-28T20:31:57.806Z,123.38
2023-02-28T20:33:59.405Z,208.80
2023-02-28T20:36:05.612Z,99.07
2023-02-28T20:38:07.234Z,121.07
2023-02-28T20:40:10.068Z,135.00
2023-02-28T20:42:11.557Z,133.20
2023-02-28T20:44:13.665Z,119.43
2023-02-28T20:46:15.194Z,105.90
2023-02-28T20:48:16.806Z,105.13
2023-02-28T20:50:18.482Z,115.05
2023-02-28T20:52:20.002Z,106.22
2023-02-28T20:54:21.738Z,118.75
2023-02-28T20:56:23.907Z,109.90
2023-02-28T20:58:27.572Z,121.22
2023-02-28T21:00:29.108Z,149.68
2023-02-28T21:02:31.117Z,147.50
2023-02-28T21:04:32.886Z,125.05
2023-02-28T21:06:40.376Z,171.60
2023-02-28T21:08:42.675Z,175.70
2023-02-28T21:10:44.237Z,181.77
2023-02-28T21:12:45.754Z,179.23
2023-02-28T21:14:47.466Z,191.98
2023-02-28T21:16:48.975Z,214.20
2023-02-28T21:18:50.657Z,219.18
2023-02-28T21:20:52.186Z,226.13
2023-02-28T21:22:53.743Z,243.38
2023-02-28T21:24:55.295Z,288.35
2023-02-28T21:26:57.699Z,259.20
2023-02-28T21:29:01.954Z,242.13
2023-02-28T21:31:05.686Z,224.93
2023-02-28T21:33:07.314Z,218.10
2023-02-28T21:35:09.253Z,197.90
2023-02-28T21:37:11.076Z,198.63
2023-02-28T21:39:25.902Z,212.93
2023-02-28T21:41:31.314Z,224.65
2023-02-28T21:43:33.145Z,187.65
2023-02-28T21:45:34.903Z,210.85
2023-02-28T21:47:36.520Z,202.68
2023-02-28T21:49:39.213Z,184.50
2023-02-28T21:51:42.647Z,200.40
2023-02-28T21:53:44.335Z,174.68
2023-02-28T21:55:45.895Z,180.90
2023-02-28T21:57:47.435Z,156.93
2023-02-28T21:59:49.140Z,163.35
2023-02-28T22:01:51.867Z,177.30
2023-02-28T22:03:53.450Z,185.50
2023-02-28T22:05:55.087Z,193.40
2023-02-28T22:07:56.612Z,194.30
2023-02-28T22:09:58.137Z,182.90
2023-02-28T22:11:59.727Z,197.77
2023-02-28T22:14:01.636Z,196.75
2023-02-28T22:16:05.080Z,187.65
2023-02-28T22:18:06.674Z,185.40
2023-02-28T22:20:10.762Z,190.18
2023-02-28T22:22:12.973Z,170.23
2023-02-28T22:24:15.809Z,170.43
2023-02-28T22:26:20.492Z,173.50
2023-02-28T22:28:22.922Z,165.68
2023-02-28T22:30:24.455Z,188.82
2023-02-28T22:32:26.070Z,184.93
2023-02-28T22:34:27.703Z,188.75
2023-02-28T22:36:30.285Z,193.38
2023-02-28T22:38:35.360Z,204.93
2023-02-28T22:40:37.526Z,224.98
2023-02-28T22:42:39.042Z,252.50
2023-02-28T22:44:41.055Z,263.45
2023-02-28T22:46:42.621Z,259.00
2023-02-28T22:48:44.180Z,274.50
2023-02-28T22:50:45.908Z,248.05
2023-02-28T22:52:47.456Z,240.57
2023-02-28T22:54:50.560Z,236.90
2023-02-28T22:56:52.258Z,242.50
2023-02-28T22:58:56.189Z,232.57
2023-02-28T23:01:08.820Z,211.73
2023-02-28T23:03:10.571Z,198.55
2023-02-28T23:05:13.283Z,185.27
2023-02-28T23:07:15.307Z,186.52
2023-02-28T23:09:18.770Z,196.48
2023-02-28T23:11:23.866Z,172.48
2023-02-28T23:13:25.449Z,150.40
2023-02-28T23:15:27.029Z,239.32
2023-02-28T23:17:30.963Z,479.48
2023-02-28T23:19:32.562Z,255.32
2023-02-28T23:21:34.865Z,199.32
2023-02-28T23:23:36.368Z,205.40
2023-02-28T23:25:41.934Z,205.60
2023-02-28T23:27:44.325Z,183.48
2023-02-28T23:29:46.074Z,194.85
2023-02-28T23:31:48.318Z,211.73
2023-02-28T23:33:50.163Z,200.25
2023-02-28T23:35:51.971Z,195.27
2023-02-28T23:37:57.383Z,200.85
2023-02-28T23:39:58.975Z,195.40
2023-02-28T23:42:01.736Z,180.25
2023-02-28T23:44:04.184Z,164.60
2023-02-28T23:46:05.954Z,185.38
2023-02-28T23:48:07.871Z,181.70
2023-02-28T23:50:10.341Z,158.18
2023-02-28T23:52:11.896Z,158.90
2023-02-28T23:54:13.387Z,156.98
2023-02-28T23:56:18.172Z,155.23
2023-02-28T23:58:19.758Z,165.55
